createdAt,value
2022-09-29T00:01:44.390Z,99.90
2022-09-29T00:04:11.647Z,99.90
2022-09-29T00:06:38.460Z,99.90
2022-09-29T00:09:05.322Z,99.90
2022-09-29T00:11:32.010Z,99.90
2022-09-29T00:13:58.974Z,99.90
2022-09-29T00:16:25.684Z,99.90
2022-09-29T00:18:55.084Z,99.90
2022-09-29T00:21:21.877Z,99.90
2022-09-29T00:23:49.556Z,99.90
2022-09-29T00:26:21.147Z,99.90
2022-09-29T00:28:49.570Z,99.90
2022-09-29T00:31:16.362Z,99.90
2022-09-29T00:33:43.204Z,99.90
2022-09-29T00:36:14.274Z,99.90
2022-09-29T00:38:41.594Z,99.90
2022-09-29T00:41:08.824Z,99.90
2022-09-29T00:43:55.634Z,99.90
2022-09-29T00:46:26.511Z,99.90
2022-09-29T00:48:54.972Z,99.90
2022-09-29T00:51:21.813Z,99.90
2022-09-29T00:53:50.857Z,99.90
2022-09-29T00:56:17.623Z,99.90
2022-09-29T00:58:54.676Z,99.90
2022-09-29T01:01:25.549Z,99.90
2022-09-29T01:03:53.683Z,99.90
2022-09-29T01:06:22.037Z,99.90
2022-09-29T01:08:51.943Z,99.90
2022-09-29T01:11:20.159Z,99.90
2022-09-29T01:13:46.921Z,99.90
2022-09-29T01:16:13.653Z,99.90
2022-09-29T01:18:40.462Z,99.90
2022-09-29T01:21:35.335Z,99.90
2022-09-29T01:24:26.959Z,99.90
2022-09-29T01:27:02.522Z,99.90
2022-09-29T01:29:57.510Z,99.90
2022-09-29T01:32:42.887Z,99.90
2022-09-29T01:35:15.873Z,99.90
2022-09-29T01:37:54.571Z,99.90
2022-09-29T01:40:34.492Z,99.90
2022-09-29T01:43:09.787Z,99.90
2022-09-29T01:45:42.762Z,99.90
2022-09-29T01:48:12.251Z,99.90
2022-09-29T01:50:44.553Z,99.90
2022-09-29T01:53:16.218Z,99.90
2022-09-29T01:55:47.297Z,99.90
2022-09-29T01:58:20.003Z,99.90
2022-09-29T02:00:50.864Z,99.90
2022-09-29T02:03:35.651Z,99.90
2022-09-29T02:06:04.655Z,99.90
2022-09-29T02:08:32.913Z,99.90
2022-09-29T02:11:04.838Z,99.90
2022-09-29T02:13:43.084Z,99.90
2022-09-29T02:16:14.396Z,99.90
2022-09-29T02:18:47.761Z,99.90
2022-09-29T02:21:14.476Z,99.90
2022-09-29T02:23:41.208Z,99.90
2022-09-29T02:26:07.949Z,99.90
2022-09-29T02:28:34.652Z,99.90
2022-09-29T02:31:01.985Z,99.90
2022-09-29T02:33:28.792Z,99.90
2022-09-29T02:36:13.115Z,99.90
2022-09-29T02:38:48.915Z,99.90
2022-09-29T02:41:38.134Z,99.90
2022-09-29T02:44:39.163Z,99.90
2022-09-29T02:47:36.055Z,99.90
2022-09-29T02:50:21.371Z,99.90
2022-09-29T02:53:00.280Z,99.90
2022-09-29T02:55:38.431Z,99.90
2022-09-29T02:58:15.938Z,99.90
2022-09-29T03:00:43.033Z,99.90
2022-09-29T03:03:10.163Z,99.90
2022-09-29T03:05:37.561Z,99.90
2022-09-29T03:08:04.270Z,99.90
2022-09-29T03:10:30.978Z,99.90
2022-09-29T03:12:57.749Z,99.90
2022-09-29T03:15:24.529Z,99.90
2022-09-29T03:17:51.194Z,99.90
2022-09-29T03:20:17.926Z,99.90
2022-09-29T03:22:44.894Z,99.90
2022-09-29T03:25:12.018Z,99.90
2022-09-29T03:27:39.273Z,99.90
2022-09-29T03:30:06.565Z,99.90
2022-09-29T03:32:33.332Z,99.90
2022-09-29T03:35:00.095Z,99.90
2022-09-29T03:37:26.918Z,99.90
2022-09-29T03:39:53.708Z,99.90
2022-09-29T03:42:24.143Z,99.90
2022-09-29T03:44:50.954Z,99.90
2022-09-29T03:47:17.677Z,99.90
2022-09-29T03:49:44.387Z,99.90
2022-09-29T03:52:12.550Z,99.90
2022-09-29T03:54:40.028Z,99.90
2022-09-29T03:57:06.737Z,99.90
2022-09-29T03:59:33.498Z,99.90
2022-09-29T04:02:00.312Z,99.90
2022-09-29T04:04:27.077Z,99.90
2022-09-29T04:06:53.798Z,99.90
2022-09-29T04:09:20.688Z,99.90
2022-09-29T04:11:47.592Z,99.90
2022-09-29T04:14:14.355Z,99.90
2022-09-29T04:16:41.101Z,99.90
2022-09-29T04:19:07.882Z,99.90
2022-09-29T04:21:34.585Z,99.90
2022-09-29T04:24:01.652Z,99.90
2022-09-29T04:26:28.438Z,99.90
2022-09-29T04:28:55.975Z,99.90
2022-09-29T04:31:22.753Z,99.90
2022-09-29T04:33:49.552Z,99.90
2022-09-29T04:36:16.276Z,99.90
2022-09-29T04:38:43.038Z,99.90
2022-09-29T04:41:09.873Z,99.90
2022-09-29T04:43:36.585Z,99.90
2022-09-29T04:46:04.817Z,99.90
2022-09-29T04:48:35.589Z,99.90
2022-09-29T04:51:03.882Z,99.90
2022-09-29T04:53:30.642Z,99.90
2022-09-29T04:55:57.460Z,99.90
2022-09-29T04:58:24.248Z,99.90
2022-09-29T05:00:50.979Z,99.90
2022-09-29T05:03:17.889Z,99.90
2022-09-29T05:05:44.729Z,99.90
2022-09-29T05:08:11.526Z,99.90
2022-09-29T05:10:38.269Z,99.90
2022-09-29T05:13:04.966Z,99.90
2022-09-29T05:15:31.824Z,99.90
2022-09-29T05:18:02.343Z,99.90
2022-09-29T05:20:36.639Z,99.90
2022-09-29T05:23:10.282Z,99.90
2022-09-29T05:25:37.813Z,99.90
2022-09-29T05:28:04.565Z,99.90
2022-09-29T05:30:31.338Z,99.90
2022-09-29T05:32:59.159Z,99.90
2022-09-29T05:35:26.074Z,99.90
2022-09-29T05:37:52.952Z,99.90
2022-09-29T05:40:20.525Z,99.90
2022-09-29T05:42:47.342Z,99.90
2022-09-29T05:45:14.182Z,99.90
2022-09-29T05:47:44.691Z,99.90
2022-09-29T05:50:14.327Z,99.90
2022-09-29T05:52:41.104Z,99.90
2022-09-29T05:55:14.450Z,99.90
2022-09-29T05:57:41.311Z,99.90
2022-09-29T06:00:08.574Z,99.90
2022-09-29T06:02:35.352Z,99.90
2022-09-29T06:05:02.166Z,99.90
2022-09-29T06:07:28.849Z,99.90
2022-09-29T06:09:55.626Z,99.90
2022-09-29T06:12:25.185Z,99.90
2022-09-29T06:14:51.929Z,99.90
2022-09-29T06:17:18.681Z,99.90
2022-09-29T06:19:45.863Z,99.90
2022-09-29T06:22:12.860Z,99.90
2022-09-29T06:24:39.565Z,99.90
2022-09-29T06:27:06.820Z,99.90
2022-09-29T06:29:33.564Z,99.90
2022-09-29T06:32:00.527Z,99.90
2022-09-29T06:34:27.378Z,99.90
2022-09-29T06:37:13.067Z,99.90
2022-09-29T06:39:39.949Z,99.90
2022-09-29T06:42:06.662Z,99.90
2022-09-29T06:44:33.363Z,99.90
2022-09-29T06:47:00.209Z,99.90
2022-09-29T06:49:26.945Z,99.90
2022-09-29T06:51:53.692Z,99.90
2022-09-29T06:54:22.079Z,99.90
2022-09-29T06:56:49.627Z,99.90
2022-09-29T06:59:16.882Z,99.90
2022-09-29T07:01:43.787Z,99.90
2022-09-29T07:04:10.674Z,99.90
2022-09-29T07:06:37.493Z,99.90
2022-09-29T07:09:04.272Z,99.90
2022-09-29T07:11:30.999Z,99.90
2022-09-29T07:13:58.270Z,99.90
2022-09-29T07:16:25.426Z,99.90
2022-09-29T07:18:52.918Z,99.90
2022-09-29T07:21:19.761Z,99.90
2022-09-29T07:23:48.703Z,99.90
2022-09-29T07:26:16.804Z,99.90
2022-09-29T07:28:45.180Z,99.90
2022-09-29T07:31:17.464Z,99.90
2022-09-29T07:33:44.971Z,99.90
2022-09-29T07:36:12.463Z,99.90
2022-09-29T07:38:39.210Z,99.90
2022-09-29T07:41:11.551Z,99.90
2022-09-29T07:43:38.763Z,99.90
2022-09-29T07:46:06.104Z,99.90
2022-09-29T07:48:33.809Z,99.90
2022-09-29T07:51:14.349Z,99.90
2022-09-29T07:53:43.644Z,99.90
2022-09-29T07:56:14.208Z,99.90
2022-09-29T07:58:56.328Z,99.90
2022-09-29T08:01:23.182Z,99.90
2022-09-29T08:03:52.269Z,99.90
2022-09-29T08:06:19.815Z,99.90
2022-09-29T08:08:58.203Z,99.90
2022-09-29T08:11:32.014Z,99.90
2022-09-29T08:13:59.509Z,99.90
2022-09-29T08:16:26.566Z,99.90
2022-09-29T08:18:53.546Z,99.90
2022-09-29T08:21:20.320Z,99.90
2022-09-29T08:23:47.108Z,99.90
2022-09-29T08:26:16.359Z,99.90
2022-09-29T08:28:43.520Z,99.90
2022-09-29T08:31:20.347Z,99.90
2022-09-29T08:33:49.851Z,99.90
2022-09-29T08:36:16.885Z,99.90
2022-09-29T08:38:45.023Z,99.90
2022-09-29T08:41:34.035Z,99.90
2022-09-29T08:44:07.192Z,99.90
2022-09-29T08:46:39.839Z,99.90
2022-09-29T08:49:42.697Z,99.90
2022-09-29T08:52:19.338Z,99.90
2022-09-29T08:54:48.957Z,99.90
2022-09-29T08:57:20.607Z,99.90
2022-09-29T08:59:58.598Z,99.90
2022-09-29T09:02:40.327Z,99.90
2022-09-29T09:05:22.300Z,99.90
2022-09-29T09:07:52.085Z,99.90
2022-09-29T09:10:47.321Z,99.90
2022-09-29T09:13:24.273Z,99.90
2022-09-29T09:16:49.495Z,99.90
2022-09-29T09:19:35.070Z,99.90
2022-09-29T09:22:24.988Z,99.90
2022-09-29T09:25:26.596Z,99.90
2022-09-29T09:28:32.115Z,99.90
2022-09-29T09:31:07.999Z,99.90
2022-09-29T09:33:37.913Z,99.90
2022-09-29T09:36:09.572Z,99.90
2022-09-29T09:38:51.247Z,99.90
2022-09-29T09:41:19.358Z,99.90
2022-09-29T09:43:48.176Z,99.90
2022-09-29T09:46:20.992Z,99.90
2022-09-29T09:48:58.461Z,99.90
2022-09-29T09:51:49.977Z,99.90
2022-09-29T09:54:27.409Z,99.90
2022-09-29T09:57:26.909Z,99.90
2022-09-29T10:00:18.950Z,99.90
2022-09-29T10:02:53.039Z,99.90
2022-09-29T10:05:21.595Z,99.90
2022-09-29T10:07:51.157Z,99.90
2022-09-29T10:10:22.828Z,99.90
2022-09-29T10:13:01.903Z,99.90
2022-09-29T10:15:43.599Z,99.90
2022-09-29T10:18:15.410Z,99.90
2022-09-29T10:20:42.754Z,99.90
2022-09-29T10:23:28.817Z,99.90
2022-09-29T10:26:02.869Z,99.90
2022-09-29T10:28:38.170Z,99.90
2022-09-29T10:31:27.877Z,99.90
2022-09-29T10:33:59.034Z,99.90
2022-09-29T10:36:46.595Z,99.90
2022-09-29T10:39:35.036Z,99.90
2022-09-29T10:42:02.449Z,99.90
2022-09-29T10:44:31.732Z,99.90
2022-09-29T10:46:58.608Z,99.90
2022-09-29T10:49:29.105Z,99.90
2022-09-29T10:52:05.473Z,99.90
2022-09-29T10:54:37.653Z,99.90
2022-09-29T10:57:15.458Z,99.90
2022-09-29T10:59:49.434Z,99.90
2022-09-29T11:02:30.356Z,99.90
2022-09-29T11:04:59.659Z,99.90
2022-09-29T11:07:26.394Z,99.90
2022-09-29T11:09:54.859Z,99.90
2022-09-29T11:12:33.474Z,99.90
2022-09-29T11:15:08.994Z,99.90
2022-09-29T11:17:39.162Z,99.90
2022-09-29T11:20:10.992Z,99.90
2022-09-29T11:22:49.144Z,99.90
2022-09-29T11:25:32.098Z,99.90
2022-09-29T11:28:23.720Z,99.90
2022-09-29T11:31:08.866Z,99.90
2022-09-29T11:33:48.734Z,99.90
2022-09-29T11:36:35.351Z,99.90
2022-09-29T11:39:19.705Z,99.90
2022-09-29T11:42:23.738Z,99.90
2022-09-29T11:44:58.645Z,99.90
2022-09-29T11:47:55.523Z,99.90
2022-09-29T11:50:23.939Z,99.90
2022-09-29T11:53:09.912Z,99.90
2022-09-29T11:56:01.246Z,99.90
2022-09-29T11:58:57.489Z,99.90
2022-09-29T12:01:31.052Z,99.90
2022-09-29T12:04:22.907Z,99.90
2022-09-29T12:07:05.395Z,99.90
2022-09-29T12:09:53.908Z,99.90
2022-09-29T12:12:26.839Z,99.90
2022-09-29T12:15:22.302Z,99.90
2022-09-29T12:18:13.415Z,99.90
2022-09-29T12:20:45.208Z,99.90
2022-09-29T12:23:13.969Z,99.90
2022-09-29T12:25:51.023Z,99.90
2022-09-29T12:28:19.865Z,99.90
2022-09-29T12:30:47.924Z,99.90
2022-09-29T12:33:31.658Z,99.90
2022-09-29T12:36:47.720Z,99.90
2022-09-29T12:39:33.277Z,99.90
2022-09-29T12:42:29.293Z,99.90
2022-09-29T12:45:13.033Z,99.90
2022-09-29T12:47:58.104Z,99.90
2022-09-29T12:50:41.415Z,99.90
2022-09-29T12:53:23.295Z,99.90
2022-09-29T12:56:04.815Z,99.90
2022-09-29T12:58:50.144Z,99.90
2022-09-29T13:01:27.869Z,99.90
2022-09-29T13:04:32.174Z,99.90
2022-09-29T13:07:18.357Z,99.90
2022-09-29T13:09:57.021Z,99.90
2022-09-29T13:12:47.490Z,99.90
2022-09-29T13:15:23.262Z,99.90
2022-09-29T13:17:57.366Z,99.90
2022-09-29T13:20:27.049Z,99.90
2022-09-29T13:23:33.091Z,99.90
2022-09-29T13:26:16.263Z,99.00
2022-09-29T13:28:54.271Z,96.90
2022-09-29T13:31:23.241Z,99.50
2022-09-29T13:33:53.538Z,99.90
2022-09-29T13:36:25.289Z,99.90
2022-09-29T13:38:55.393Z,99.90
2022-09-29T13:41:22.052Z,99.90
2022-09-29T13:43:51.721Z,98.30
2022-09-29T13:46:30.896Z,99.40
2022-09-29T13:49:09.877Z,97.90
2022-09-29T13:51:52.634Z,98.00
2022-09-29T13:54:31.605Z,98.50
2022-09-29T13:57:13.502Z,97.60
2022-09-29T13:59:41.173Z,95.90
2022-09-29T14:02:33.248Z,97.80
2022-09-29T14:05:00.558Z,93.30
2022-09-29T14:07:47.324Z,96.50
2022-09-29T14:10:32.329Z,92.50
2022-09-29T14:13:13.214Z,96.00
2022-09-29T14:15:46.715Z,93.60
2022-09-29T14:18:44.342Z,95.70
2022-09-29T14:21:12.952Z,85.30
2022-09-29T14:23:46.105Z,90.50
2022-09-29T14:26:44.103Z,90.90
2022-09-29T14:29:33.263Z,88.20
2022-09-29T14:32:00.669Z,88.40
2022-09-29T14:34:29.446Z,92.90
2022-09-29T14:36:59.037Z,93.40
2022-09-29T14:39:32.462Z,92.90
2022-09-29T14:41:59.795Z,93.70
2022-09-29T14:44:50.696Z,94.40
2022-09-29T14:47:42.550Z,94.80
2022-09-29T14:51:12.264Z,95.00
2022-09-29T14:53:47.121Z,92.80
2022-09-29T14:56:36.442Z,83.20
2022-09-29T14:59:23.387Z,72.90
2022-09-29T15:02:19.166Z,74.30
2022-09-29T15:04:46.126Z,69.20
2022-09-29T15:07:21.045Z,77.20
2022-09-29T15:09:57.600Z,71.60
2022-09-29T15:12:28.900Z,72.30
2022-09-29T15:14:58.031Z,71.80
2022-09-29T15:17:46.284Z,68.40
2022-09-29T15:20:39.158Z,69.30
2022-09-29T15:23:47.824Z,69.70
2022-09-29T15:26:15.143Z,60.30
2022-09-29T15:28:43.419Z,67.80
2022-09-29T15:31:16.945Z,67.40
2022-09-29T15:33:44.080Z,63.50
2022-09-29T15:36:20.895Z,67.00
2022-09-29T15:38:51.032Z,63.50
2022-09-29T15:41:19.050Z,65.40
2022-09-29T15:43:59.700Z,65.20
2022-09-29T15:47:01.745Z,57.40
2022-09-29T15:49:29.009Z,57.90
2022-09-29T15:51:59.716Z,62.70
2022-09-29T15:54:29.878Z,62.40
2022-09-29T15:57:15.163Z,65.20
2022-09-29T15:59:43.677Z,66.10
2022-09-29T16:02:36.308Z,67.60
2022-09-29T16:05:12.225Z,67.50
2022-09-29T16:07:41.833Z,69.90
2022-09-29T16:10:15.805Z,71.50
2022-09-29T16:13:13.512Z,72.70
2022-09-29T16:15:47.158Z,72.40
2022-09-29T16:18:34.424Z,74.10
2022-09-29T16:21:06.273Z,74.50
2022-09-29T16:23:49.247Z,76.10
2022-09-29T16:26:38.524Z,77.10
2022-09-29T16:29:14.022Z,73.20
2022-09-29T16:31:42.117Z,74.70
2022-09-29T16:34:21.449Z,73.70
2022-09-29T16:36:54.017Z,70.50
2022-09-29T16:39:24.126Z,73.90
2022-09-29T16:41:55.595Z,73.40
2022-09-29T16:44:30.218Z,74.30
2022-09-29T16:47:16.807Z,72.40
2022-09-29T16:50:14.364Z,72.00
2022-09-29T16:52:44.776Z,73.10
2022-09-29T16:55:17.428Z,76.30
2022-09-29T16:58:01.251Z,76.60
2022-09-29T17:00:28.359Z,76.70
2022-09-29T17:02:55.601Z,78.60
2022-09-29T17:05:23.601Z,80.30
2022-09-29T17:07:51.072Z,81.00
2022-09-29T17:10:19.434Z,81.10
2022-09-29T17:12:46.273Z,83.40
2022-09-29T17:15:17.257Z,86.00
2022-09-29T17:17:48.878Z,87.70
2022-09-29T17:20:18.631Z,90.10
2022-09-29T17:22:46.022Z,90.10
2022-09-29T17:25:13.436Z,91.20
2022-09-29T17:27:59.085Z,91.50
2022-09-29T17:30:26.328Z,91.60
2022-09-29T17:32:53.771Z,92.30
2022-09-29T17:35:22.869Z,92.50
2022-09-29T17:37:53.327Z,94.10
2022-09-29T17:40:34.515Z,95.50
2022-09-29T17:43:01.878Z,97.20
2022-09-29T17:45:29.939Z,96.90
2022-09-29T17:47:56.837Z,97.80
2022-09-29T17:50:24.782Z,97.90
2022-09-29T17:52:52.562Z,98.70
2022-09-29T17:55:21.383Z,99.50
2022-09-29T17:57:50.020Z,99.90
2022-09-29T18:00:19.419Z,99.90
2022-09-29T18:02:46.368Z,99.90
2022-09-29T18:05:13.419Z,99.90
2022-09-29T18:07:42.071Z,99.90
2022-09-29T18:10:30.096Z,99.90
2022-09-29T18:12:57.145Z,99.90
2022-09-29T18:15:24.494Z,99.90
2022-09-29T18:17:56.022Z,99.90
2022-09-29T18:20:23.670Z,99.90
2022-09-29T18:22:50.914Z,99.90
2022-09-29T18:25:18.742Z,99.90
2022-09-29T18:27:46.594Z,99.90
2022-09-29T18:30:19.628Z,99.90
2022-09-29T18:32:50.718Z,99.90
2022-09-29T18:35:22.157Z,99.90
2022-09-29T18:37:48.977Z,99.90
2022-09-29T18:40:16.032Z,99.90
2022-09-29T18:42:44.251Z,99.90
2022-09-29T18:45:12.599Z,99.90
2022-09-29T18:47:44.428Z,99.90
2022-09-29T18:50:15.594Z,99.90
2022-09-29T18:52:42.618Z,99.90
2022-09-29T18:55:09.596Z,99.90
2022-09-29T18:57:37.639Z,99.90
2022-09-29T19:00:11.107Z,99.90
2022-09-29T19:02:38.205Z,99.90
2022-09-29T19:05:06.679Z,99.90
2022-09-29T19:07:34.992Z,99.90
2022-09-29T19:10:03.007Z,99.90
2022-09-29T19:12:31.614Z,99.90
2022-09-29T19:15:01.080Z,99.90
2022-09-29T19:17:28.445Z,99.90
2022-09-29T19:19:55.274Z,99.90
2022-09-29T19:22:29.159Z,99.90
2022-09-29T19:24:58.560Z,99.90
2022-09-29T19:27:25.337Z,99.90
2022-09-29T19:29:58.401Z,99.90
2022-09-29T19:32:29.306Z,99.90
2022-09-29T19:34:56.218Z,99.90
2022-09-29T19:37:24.317Z,99.90
2022-09-29T19:39:51.672Z,99.90
2022-09-29T19:42:18.869Z,99.90
2022-09-29T19:44:45.760Z,99.90
2022-09-29T19:47:15.574Z,99.90
2022-09-29T19:49:42.436Z,99.90
2022-09-29T19:52:09.267Z,99.90
2022-09-29T19:54:37.975Z,99.90
2022-09-29T19:57:11.259Z,99.90
2022-09-29T19:59:40.391Z,99.90
2022-09-29T20:02:17.215Z,99.90
2022-09-29T20:04:46.946Z,99.90
2022-09-29T20:07:14.165Z,99.90
2022-09-29T20:09:41.024Z,99.90
2022-09-29T20:12:09.187Z,99.90
2022-09-29T20:14:37.972Z,99.90
2022-09-29T20:17:04.770Z,99.90
2022-09-29T20:19:34.851Z,99.90
2022-09-29T20:22:01.956Z,99.90
2022-09-29T20:24:28.880Z,99.90
2022-09-29T20:26:57.933Z,99.90
2022-09-29T20:29:25.376Z,99.90
2022-09-29T20:31:53.793Z,99.90
2022-09-29T20:34:22.397Z,99.90
2022-09-29T20:36:54.224Z,99.90
2022-09-29T20:39:21.796Z,99.90
2022-09-29T20:41:50.045Z,99.90
2022-09-29T20:44:20.082Z,99.90
2022-09-29T20:46:48.136Z,99.90
2022-09-29T20:49:16.300Z,99.90
2022-09-29T20:51:43.474Z,99.90
2022-09-29T20:54:11.433Z,99.90
2022-09-29T20:56:44.515Z,99.90
2022-09-29T20:59:13.224Z,99.90
2022-09-29T21:01:40.160Z,99.90
2022-09-29T21:04:09.580Z,99.90
2022-09-29T21:06:38.993Z,99.90
2022-09-29T21:09:06.333Z,99.90
2022-09-29T21:11:41.173Z,99.90
2022-09-29T21:14:09.860Z,99.90
2022-09-29T21:16:41.347Z,99.90
2022-09-29T21:19:09.489Z,99.90
2022-09-29T21:21:36.557Z,99.90
2022-09-29T21:24:03.822Z,99.90
2022-09-29T21:26:32.123Z,99.90
2022-09-29T21:29:01.532Z,99.90
2022-09-29T21:31:32.700Z,99.90
2022-09-29T21:34:09.595Z,99.90
2022-09-29T21:36:36.705Z,99.90
2022-09-29T21:39:08.323Z,99.90
2022-09-29T21:41:40.872Z,99.90
2022-09-29T21:44:11.543Z,99.90
2022-09-29T21:46:39.907Z,99.90
2022-09-29T21:49:08.289Z,99.90
2022-09-29T21:51:43.394Z,99.90
2022-09-29T21:54:17.797Z,99.90
2022-09-29T21:56:44.991Z,99.90
2022-09-29T21:59:12.582Z,99.90
2022-09-29T22:01:39.984Z,99.90
2022-09-29T22:04:07.289Z,99.90
2022-09-29T22:06:34.853Z,99.90
2022-09-29T22:09:02.247Z,99.90
2022-09-29T22:11:30.599Z,99.90
2022-09-29T22:13:58.488Z,99.90
2022-09-29T22:16:29.103Z,99.90
2022-09-29T22:19:21.499Z,99.90
2022-09-29T22:21:43.286Z,99.90
2022-09-29T22:24:10.724Z,99.90
2022-09-29T22:26:38.637Z,99.90
2022-09-29T22:29:05.529Z,99.90
2022-09-29T22:31:33.746Z,99.90
2022-09-29T22:34:01.622Z,99.90
2022-09-29T22:36:30.534Z,99.90
2022-09-29T22:38:57.622Z,99.90
2022-09-29T22:41:24.423Z,99.90
2022-09-29T22:43:53.966Z,99.90
2022-09-29T22:46:22.041Z,99.90
2022-09-29T22:48:48.942Z,99.90
2022-09-29T22:51:15.811Z,99.90
2022-09-29T22:53:42.786Z,99.90
2022-09-29T22:56:14.955Z,99.90
2022-09-29T22:58:44.889Z,99.90
2022-09-29T23:01:13.738Z,99.90
2022-09-29T23:03:41.217Z,99.90
2022-09-29T23:06:08.097Z,99.90
2022-09-29T23:08:34.955Z,99.90
2022-09-29T23:11:04.395Z,99.90
2022-09-29T23:13:31.537Z,99.90
2022-09-29T23:16:12.052Z,99.90
2022-09-29T23:18:45.849Z,99.90
2022-09-29T23:21:14.687Z,99.90
2022-09-29T23:23:41.509Z,99.90
2022-09-29T23:26:08.546Z,99.90
2022-09-29T23:28:35.750Z,99.90
2022-09-29T23:31:04.231Z,99.90
2022-09-29T23:33:31.492Z,99.90
2022-09-29T23:36:09.102Z,99.90
2022-09-29T23:38:56.226Z,99.90
2022-09-29T23:41:24.203Z,99.90
2022-09-29T23:43:50.908Z,99.90
2022-09-29T23:46:17.620Z,99.90
2022-09-29T23:48:44.714Z,99.90
2022-09-29T23:51:11.525Z,99.90
2022-09-29T23:53:38.259Z,99.90
2022-09-29T23:56:05.222Z,99.90
2022-09-29T23:58:31.988Z,99.90
